Time;durP1;ratioP1;P1;durP2;ratioP2;P2;SDS_P1;SDS_P2;PMS_P1;PMS_P2;Temp;Humidity;BMP_temperature;BMP_pressure;BME280_temperature;BME280_humidity;BME280_pressure;Samples;Min_cycle;Max_cycle;Signal;HPM_P1;HPM_P2
2021/01/15 00:02:01;;;;;;;1.20;1.00;;;0.80;98.00;;;;;;5069334;28;20816;-65
2021/01/15 00:04:28;;;;;;;1.63;1.27;;;0.70;98.00;;;;;;5072714;28;20513;-65
2021/01/15 00:07:04;;;;;;;1.35;1.33;;;0.70;98.00;;;;;;5069562;28;20465;-66
2021/01/15 00:09:31;;;;;;;1.90;1.13;;;0.60;98.00;;;;;;5072513;28;20589;-64
2021/01/15 00:11:58;;;;;;;1.20;1.00;;;0.50;98.00;;;;;;5070507;28;20460;-65
2021/01/15 00:14:25;;;;;;;1.33;1.10;;;0.40;98.00;;;;;;5072499;28;20467;-66
2021/01/15 00:16:54;;;;;;;1.20;0.93;;;0.50;98.00;;;;;;5069237;28;20211;-65
2021/01/15 00:19:21;;;;;;;1.13;1.03;;;0.60;98.00;;;;;;5072264;28;20512;-67
2021/01/15 00:21:50;;;;;;;1.80;1.10;;;0.70;98.00;;;;;;5069023;28;20814;-65
2021/01/15 00:24:18;;;;;;;1.20;1.10;;;0.70;98.00;;;;;;5071950;28;20921;-65
2021/01/15 00:26:45;;;;;;;1.17;0.90;;;0.60;98.00;;;;;;5070379;28;20455;-66
2021/01/15 00:29:13;;;;;;;1.40;1.27;;;0.60;98.00;;;;;;5072140;28;20539;-65
2021/01/15 00:31:41;;;;;;;1.30;1.10;;;0.70;98.00;;;;;;5070170;28;20458;-66
2021/01/15 00:34:10;;;;;;;1.20;1.00;;;0.70;98.00;;;;;;5071998;28;20531;-65
2021/01/15 00:36:38;;;;;;;1.20;1.00;;;0.80;98.00;;;;;;5070079;28;20454;-65
2021/01/15 00:39:06;;;;;;;1.10;1.00;;;0.80;98.00;;;;;;5071834;28;20936;-65
2021/01/15 00:41:35;;;;;;;1.20;1.20;;;0.90;98.00;;;;;;5069840;28;20830;-65
2021/01/15 00:44:02;;;;;;;1.97;1.40;;;0.90;98.00;;;;;;5072013;28;20466;-65
2021/01/15 00:46:31;;;;;;;1.30;1.10;;;0.90;98.00;;;;;;5070128;28;20828;-65
2021/01/15 00:48:59;;;;;;;2.23;1.20;;;0.90;98.00;;;;;;5071898;28;20583;-67
2021/01/15 00:51:27;;;;;;;2.37;1.73;;;1.00;98.00;;;;;;5070071;28;20462;-67
2021/01/15 00:53:53;;;;;;;1.17;1.00;;;0.90;98.00;;;;;;5071743;28;20740;-67
2021/01/15 00:56:20;;;;;;;1.87;1.30;;;0.80;98.00;;;;;;5069792;28;20487;-66
2021/01/15 00:58:47;;;;;;;1.10;0.90;;;0.80;98.00;;;;;;5071500;28;20460;-66
2021/01/15 01:01:15;;;;;;;1.30;1.23;;;0.90;98.00;;;;;;5069617;28;20459;-66
2021/01/15 01:03:42;;;;;;;1.10;0.90;;;0.90;98.00;;;;;;5071509;28;20797;-66
2021/01/15 01:06:15;;;;;;;1.20;1.10;;;0.90;98.00;;;;;;5069613;28;20864;-66
2021/01/15 01:08:43;;;;;;;8.90;1.83;;;0.90;98.00;;;;;;5071267;28;20863;-65
2021/01/15 01:11:11;;;;;;;1.17;0.90;;;0.90;98.00;;;;;;5069388;28;20880;-66
2021/01/15 01:13:38;;;;;;;1.10;1.00;;;0.90;98.00;;;;;;5071267;28;20510;-69
2021/01/15 01:16:05;;;;;;;1.10;1.10;;;0.70;98.00;;;;;;5069754;28;20795;-66
2021/01/15 01:18:34;;;;;;;1.20;1.00;;;0.80;98.00;;;;;;5071186;28;20470;-66
2021/01/15 01:21:00;;;;;;;1.20;1.10;;;0.80;98.00;;;;;;5069449;28;20462;-65
2021/01/15 01:23:27;;;;;;;1.13;1.00;;;0.80;98.00;;;;;;5069884;28;20988;-65
2021/01/15 01:25:54;;;;;;;1.10;1.00;;;0.80;98.00;;;;;;5069369;28;20458;-66
2021/01/15 01:28:21;;;;;;;1.20;1.10;;;0.90;98.00;;;;;;5070965;28;20481;-66
2021/01/15 01:30:48;;;;;;;1.30;1.30;;;1.00;98.00;;;;;;5070792;28;20464;-66
2021/01/15 01:33:14;;;;;;;1.10;0.90;;;0.90;98.00;;;;;;5070230;28;20455;-65
2021/01/15 01:35:41;;;;;;;1.10;0.90;;;1.00;98.00;;;;;;5070518;28;20454;-66
2021/01/15 01:38:07;;;;;;;1.20;1.10;;;0.90;98.00;;;;;;5067639;28;20463;-65
2021/01/15 01:40:34;;;;;;;1.17;1.00;;;0.90;98.00;;;;;;5070923;28;20480;-68
2021/01/15 01:43:02;;;;;;;1.90;1.87;;;0.90;98.00;;;;;;5068831;28;20971;-67
2021/01/15 01:45:28;;;;;;;1.20;1.00;;;0.90;98.00;;;;;;5070763;28;20466;-66
2021/01/15 01:47:56;;;;;;;1.20;1.00;;;1.00;98.00;;;;;;5068924;28;20490;-67
2021/01/15 01:50:24;;;;;;;1.23;1.23;;;1.00;98.00;;;;;;5070793;28;20466;-66
2021/01/15 01:52:51;;;;;;;1.17;1.00;;;0.90;98.00;;;;;;5068914;28;20457;-66
2021/01/15 01:55:18;;;;;;;1.60;1.30;;;0.90;98.00;;;;;;5069423;28;20450;-65
2021/01/15 01:57:46;;;;;;;1.23;1.00;;;0.90;98.00;;;;;;5068888;28;21210;-65
2021/01/15 02:00:15;;;;;;;1.33;1.13;;;0.90;98.00;;;;;;5070445;28;20472;-65
2021/01/15 02:02:41;;;;;;;1.10;1.00;;;0.90;98.00;;;;;;5068681;28;20637;-65
2021/01/15 02:05:09;;;;;;;1.10;1.00;;;0.90;98.00;;;;;;5070514;28;20473;-66
2021/01/15 02:07:35;;;;;;;1.20;1.00;;;0.90;98.00;;;;;;5068580;28;20524;-65
2021/01/15 02:10:08;;;;;;;4.90;1.10;;;0.70;98.00;;;;;;5069428;28;20453;-66
2021/01/15 02:12:45;;;;;;;1.40;1.37;;;0.50;98.00;;;;;;5068808;28;20200;-65
2021/01/15 02:15:19;;;;;;;1.20;1.00;;;0.50;98.00;;;;;;5070715;28;20468;-66
2021/01/15 02:17:52;;;;;;;1.30;1.02;;;0.40;98.00;;;;;;5069098;28;20538;-64
2021/01/15 02:20:52;;;;;;;1.30;1.10;;;0.60;98.00;;;;;;5070502;28;20199;-64
2021/01/15 02:23:25;;;;;;;1.37;1.27;;;0.60;98.00;;;;;;5068063;28;20455;-64
2021/01/15 02:26:21;;;;;;;1.20;1.20;;;0.60;98.00;;;;;;5070445;28;20466;-65
2021/01/15 02:29:06;;;;;;;1.20;1.00;;;0.70;98.00;;;;;;5070418;28;20501;-64
2021/01/15 02:32:09;;;;;;;1.20;1.10;;;0.60;98.00;;;;;;5067343;28;20960;-65
2021/01/15 02:34:51;;;;;;;1.20;1.00;;;0.60;98.00;;;;;;5071562;28;20461;-66
2021/01/15 02:37:22;;;;;;;1.50;1.20;;;0.60;98.00;;;;;;5068932;28;20463;-67
2021/01/15 02:40:03;;;;;;;1.30;1.10;;;0.50;98.00;;;;;;5070086;28;21062;-66
2021/01/15 02:42:33;;;;;;;2.42;1.30;;;0.40;98.00;;;;;;5068627;28;20499;-68
2021/01/15 02:45:02;;;;;;;1.10;1.00;;;0.50;98.00;;;;;;5069020;28;20674;-67
2021/01/15 02:47:39;;;;;;;1.20;1.00;;;0.60;98.00;;;;;;5069365;28;20821;-67
2021/01/15 02:50:11;;;;;;;1.87;1.30;;;0.60;98.00;;;;;;5074048;28;20211;-70
2021/01/15 02:52:40;;;;;;;3.57;1.67;;;0.50;98.00;;;;;;5072308;28;20458;-68
2021/01/15 02:55:08;;;;;;;1.20;1.00;;;0.60;98.00;;;;;;5073985;28;20467;-66
2021/01/15 02:57:34;;;;;;;1.10;1.00;;;0.60;98.00;;;;;;5072108;28;20462;-66
2021/01/15 03:00:01;;;;;;;4.50;2.20;;;0.50;98.00;;;;;;5073778;28;20486;-67
2021/01/15 03:02:34;;;;;;;1.20;1.10;;;0.60;98.00;;;;;;5072207;28;21017;-67
2021/01/15 03:05:05;;;;;;;1.20;1.00;;;0.60;98.00;;;;;;5073790;28;20463;-66
2021/01/15 03:07:34;;;;;;;1.20;1.00;;;0.50;98.00;;;;;;5071618;28;20449;-67
2021/01/15 03:10:04;;;;;;;1.90;1.27;;;0.60;98.00;;;;;;5072393;28;20461;-67
2021/01/15 03:12:31;;;;;;;1.10;0.90;;;0.70;98.00;;;;;;5071931;28;20463;-67
2021/01/15 03:14:59;;;;;;;1.60;1.40;;;0.60;98.00;;;;;;5073606;28;20824;-67
2021/01/15 03:17:31;;;;;;;1.20;0.90;;;0.60;98.00;;;;;;5071877;28;20782;-67
2021/01/15 03:19:58;;;;;;;1.10;1.00;;;0.50;98.00;;;;;;5073588;28;20476;-65
2021/01/15 03:22:25;;;;;;;1.20;0.93;;;0.50;98.00;;;;;;5071500;28;20474;-65
2021/01/15 03:24:55;;;;;;;1.20;0.90;;;0.40;98.00;;;;;;5073719;28;20450;-66
2021/01/15 03:27:23;;;;;;;1.17;1.00;;;0.40;98.00;;;;;;5071568;28;20981;-66
2021/01/15 03:29:49;;;;;;;1.20;1.00;;;0.30;98.00;;;;;;5073367;28;20483;-67
2021/01/15 03:32:16;;;;;;;1.20;1.07;;;0.40;98.00;;;;;;5071279;28;20477;-68
2021/01/15 03:34:43;;;;;;;1.43;1.30;;;0.40;98.00;;;;;;5073231;28;20458;-66
2021/01/15 03:37:10;;;;;;;1.20;1.00;;;0.40;98.00;;;;;;5069941;28;20948;-69
2021/01/15 03:39:36;;;;;;;3.00;1.83;;;0.40;98.00;;;;;;5073328;28;20867;-68
2021/01/15 03:42:04;;;;;;;1.10;1.00;;;0.40;98.00;;;;;;5071219;28;20455;-67
2021/01/15 03:44:31;;;;;;;1.10;0.90;;;0.40;98.00;;;;;;5073313;28;20455;-66
2021/01/15 03:46:57;;;;;;;1.20;1.13;;;0.50;98.00;;;;;;5071256;28;20494;-67
2021/01/15 03:49:24;;;;;;;1.10;0.90;;;0.30;98.00;;;;;;5072901;28;20930;-66
2021/01/15 03:51:51;;;;;;;1.20;1.20;;;0.30;98.00;;;;;;5069961;28;20461;-65
2021/01/15 03:54:17;;;;;;;1.10;0.90;;;0.40;98.00;;;;;;5073104;28;20620;-65
2021/01/15 03:56:44;;;;;;;1.20;1.10;;;0.30;98.00;;;;;;5071519;28;20665;-65
2021/01/15 03:59:11;;;;;;;1.20;1.10;;;0.40;98.00;;;;;;5072347;28;20978;-66
2021/01/15 04:01:37;;;;;;;1.20;1.00;;;0.50;98.00;;;;;;5069923;28;20784;-65
2021/01/15 04:04:04;;;;;;;1.53;1.27;;;0.40;98.00;;;;;;5072757;28;20212;-66
2021/01/15 04:06:31;;;;;;;1.30;1.20;;;0.40;98.00;;;;;;5070810;28;20953;-66
2021/01/15 04:08:57;;;;;;;1.20;1.10;;;0.30;98.00;;;;;;5072582;28;21007;-65
2021/01/15 04:11:24;;;;;;;1.10;1.00;;;0.20;98.00;;;;;;5070908;28;20909;-66
2021/01/15 04:13:51;;;;;;;1.67;1.30;;;0.20;98.00;;;;;;5072677;28;20827;-64
2021/01/15 04:16:18;;;;;;;1.60;1.53;;;0.20;98.00;;;;;;5070913;28;20458;-65
2021/01/15 04:18:45;;;;;;;1.17;1.00;;;0.20;98.00;;;;;;5072508;28;20462;-65
2021/01/15 04:21:15;;;;;;;1.13;1.00;;;0.20;98.00;;;;;;5070638;28;20450;-65
2021/01/15 04:23:43;;;;;;;1.20;1.00;;;0.10;98.00;;;;;;5072336;28;20499;-65
2021/01/15 04:26:16;;;;;;;1.20;1.00;;;0.00;98.00;;;;;;5070598;28;20464;-66
2021/01/15 04:28:42;;;;;;;1.20;1.00;;;-0.10;98.00;;;;;;5070961;28;20486;-65
2021/01/15 04:31:09;;;;;;;1.17;0.93;;;0.00;98.00;;;;;;5071153;28;20466;-66
2021/01/15 04:33:36;;;;;;;1.50;1.00;;;-0.20;98.00;;;;;;5072086;28;20200;-65
2021/01/15 04:36:06;;;;;;;1.20;0.90;;;-0.40;98.00;;;;;;5072022;28;20462;-66
2021/01/15 04:38:32;;;;;;;1.10;0.90;;;-0.40;98.00;;;;;;5070678;28;20205;-65
2021/01/15 04:40:59;;;;;;;1.20;1.00;;;-0.40;98.00;;;;;;5071959;28;20454;-65
2021/01/15 04:43:28;;;;;;;1.20;1.00;;;-0.50;98.00;;;;;;5069945;28;20948;-66
2021/01/15 04:45:55;;;;;;;1.20;1.10;;;-0.60;98.00;;;;;;5071962;28;20200;-65
2021/01/15 04:48:23;;;;;;;1.20;1.20;;;-0.60;98.00;;;;;;5069247;28;20224;-65
2021/01/15 04:50:54;;;;;;;1.20;1.00;;;-0.70;98.00;;;;;;5071686;28;20204;-65
2021/01/15 04:53:25;;;;;;;1.20;1.00;;;-0.80;98.00;;;;;;5069722;28;20666;-65
2021/01/15 04:55:57;;;;;;;1.17;1.00;;;-0.90;98.00;;;;;;5071670;28;20453;-65
2021/01/15 04:58:25;;;;;;;1.20;1.00;;;-0.80;98.00;;;;;;5069727;28;20203;-65
2021/01/15 05:00:57;;;;;;;1.45;1.27;;;-0.80;98.00;;;;;;5071472;28;20473;-66
2021/01/15 05:03:25;;;;;;;1.20;1.00;;;-0.80;98.00;;;;;;5070194;28;20209;-65
2021/01/15 05:05:59;;;;;;;1.25;1.20;;;-0.70;98.00;;;;;;5071514;28;20696;-64
2021/01/15 05:08:29;;;;;;;1.13;0.90;;;-0.80;98.00;;;;;;5069465;28;20656;-64
2021/01/15 05:10:56;;;;;;;1.27;1.00;;;-0.90;98.00;;;;;;5070604;28;20596;-64
2021/01/15 05:13:23;;;;;;;1.20;1.00;;;-0.90;98.00;;;;;;5068240;28;20670;-65
2021/01/15 05:15:51;;;;;;;1.20;1.00;;;-0.90;98.00;;;;;;5071517;28;20563;-65
2021/01/15 05:18:20;;;;;;;1.48;1.30;;;-0.80;98.00;;;;;;5069278;28;20730;-65
2021/01/15 05:20:48;;;;;;;1.20;1.20;;;-0.70;98.00;;;;;;5071313;28;20257;-66
2021/01/15 05:23:16;;;;;;;1.40;1.20;;;-0.90;98.00;;;;;;5070080;28;20203;-67
2021/01/15 05:25:45;;;;;;;1.20;1.00;;;-0.90;98.00;;;;;;5071325;28;20207;-64
2021/01/15 05:28:11;;;;;;;1.10;1.00;;;-1.10;98.00;;;;;;5069363;28;20218;-65
2021/01/15 05:30:41;;;;;;;1.80;1.40;;;-1.10;98.00;;;;;;5071197;28;20684;-65
2021/01/15 05:33:13;;;;;;;2.13;1.47;;;-1.10;98.00;;;;;;5069283;28;20605;-65
2021/01/15 05:35:46;;;;;;;1.20;1.00;;;-1.20;98.00;;;;;;5071317;28;20456;-65
2021/01/15 05:38:16;;;;;;;1.20;1.00;;;-1.20;98.00;;;;;;5069353;28;20204;-66
2021/01/15 05:40:44;;;;;;;1.10;1.00;;;-1.00;98.00;;;;;;5071362;28;20203;-65
2021/01/15 05:43:22;;;;;;;1.30;1.20;;;-0.90;98.00;;;;;;5069218;28;20202;-68
2021/01/15 05:46:09;;;;;;;1.20;1.05;;;-1.00;98.00;;;;;;5070912;28;20207;-67
2021/01/15 05:48:37;;;;;;;1.33;1.20;;;-1.10;98.00;;;;;;5068915;28;20218;-66
2021/01/15 05:51:05;;;;;;;1.15;1.00;;;-1.10;98.00;;;;;;5070984;28;20204;-66
2021/01/15 05:53:42;;;;;;;1.20;1.00;;;-1.00;98.00;;;;;;5068958;28;20208;-65
2021/01/15 05:56:09;;;;;;;1.20;1.05;;;-1.10;98.00;;;;;;5070735;28;20775;-65
2021/01/15 05:58:36;;;;;;;1.10;1.00;;;-1.00;98.00;;;;;;5068515;28;20661;-65
2021/01/15 06:01:02;;;;;;;1.13;1.00;;;-0.90;98.00;;;;;;5070602;28;20210;-65
2021/01/15 06:03:29;;;;;;;2.38;1.70;;;-1.00;98.00;;;;;;5067631;28;20218;-65
2021/01/15 06:05:56;;;;;;;1.20;1.17;;;-0.90;98.00;;;;;;5070743;28;20203;-65
2021/01/15 06:08:23;;;;;;;1.20;1.20;;;-0.80;98.00;;;;;;5068590;28;20250;-67
2021/01/15 06:10:50;;;;;;;1.10;0.90;;;-1.00;98.00;;;;;;5070567;28;20211;-65
2021/01/15 06:13:35;;;;;;;2.55;2.10;;;-1.00;98.00;;;;;;5068786;28;20213;-65
2021/01/15 06:16:02;;;;;;;1.55;1.40;;;-1.00;98.00;;;;;;5070558;28;20207;-65
2021/01/15 06:18:28;;;;;;;1.10;1.00;;;-0.90;98.00;;;;;;5068564;28;20627;-64
2021/01/15 06:21:07;;;;;;;1.10;1.03;;;-0.90;98.00;;;;;;5070464;28;20683;-65
2021/01/15 06:23:40;;;;;;;3.05;1.40;;;-0.90;98.00;;;;;;5071449;28;20482;-65
2021/01/15 06:26:09;;;;;;;1.20;1.00;;;-0.80;98.00;;;;;;5074460;28;20210;-64
2021/01/15 06:28:37;;;;;;;1.20;1.00;;;-0.80;98.00;;;;;;5072879;28;20585;-64
2021/01/15 06:31:08;;;;;;;1.10;1.00;;;-1.00;98.00;;;;;;5074448;28;20214;-66
2021/01/15 06:33:35;;;;;;;1.30;1.20;;;-1.00;98.00;;;;;;5072682;28;20198;-65
2021/01/15 06:36:04;;;;;;;1.40;1.30;;;-1.20;98.00;;;;;;5074441;28;20226;-65
2021/01/15 06:38:32;;;;;;;1.20;1.10;;;-1.30;98.00;;;;;;5071473;28;20233;-64
2021/01/15 06:40:59;;;;;;;1.10;1.00;;;-1.20;98.00;;;;;;5074214;28;20259;-64
2021/01/15 06:43:30;;;;;;;1.10;1.00;;;-1.20;98.00;;;;;;5072615;28;20467;-64
2021/01/15 06:45:58;;;;;;;1.10;1.00;;;-1.30;98.00;;;;;;5074146;28;20202;-65
2021/01/15 06:48:26;;;;;;;1.10;0.95;;;-1.30;98.00;;;;;;5072547;28;20223;-65
2021/01/15 06:50:55;;;;;;;1.10;0.90;;;-1.20;98.00;;;;;;5074128;28;20566;-65
2021/01/15 06:53:24;;;;;;;1.20;1.00;;;-1.20;98.00;;;;;;5072314;28;20207;-64
2021/01/15 06:55:52;;;;;;;1.10;1.00;;;-1.20;98.00;;;;;;5074125;28;20203;-64
2021/01/15 06:58:20;;;;;;;1.20;1.10;;;-1.20;98.00;;;;;;5072369;28;20196;-64
2021/01/15 07:01:20;;;;;;;2.10;1.42;;;-1.10;98.00;;;;;;5073758;28;20241;-65
2021/01/15 07:04:19;;;;;;;1.10;1.00;;;-0.90;98.00;;;;;;5072758;28;20226;-65
2021/01/15 07:07:14;;;;;;;1.20;1.00;;;-0.90;98.00;;;;;;5068610;28;20194;-65
2021/01/15 07:09:43;;;;;;;1.10;1.00;;;-1.00;98.00;;;;;;5073761;28;20238;-65
2021/01/15 07:12:12;;;;;;;1.17;1.00;;;-1.00;98.00;;;;;;5072164;28;20241;-65
2021/01/15 07:14:47;;;;;;;1.20;0.90;;;-1.00;98.00;;;;;;5073937;28;20210;-66
2021/01/15 07:17:22;;;;;;;1.15;1.00;;;-1.00;98.00;;;;;;5071568;28;20269;-65
2021/01/15 07:19:59;;;;;;;1.10;0.90;;;-1.30;98.00;;;;;;5073665;28;20201;-66
2021/01/15 07:22:34;;;;;;;1.10;1.10;;;-1.20;98.00;;;;;;5071400;28;20229;-67
2021/01/15 07:25:04;;;;;;;1.77;1.67;;;-1.10;98.00;;;;;;5073527;28;20198;-67
2021/01/15 07:27:31;;;;;;;1.10;1.00;;;-1.00;98.00;;;;;;5071181;28;20214;-66
2021/01/15 07:29:59;;;;;;;1.20;1.00;;;-1.10;98.00;;;;;;5073354;28;20275;-67
2021/01/15 07:32:29;;;;;;;1.10;1.02;;;-1.20;98.00;;;;;;5071204;28;20207;-65
2021/01/15 07:34:58;;;;;;;1.40;1.35;;;-1.30;98.00;;;;;;5072359;28;20660;-65
2021/01/15 07:37:26;;;;;;;1.10;1.10;;;-1.40;98.00;;;;;;5070888;28;20214;-64
2021/01/15 07:40:01;;;;;;;1.30;1.20;;;-1.30;98.00;;;;;;5073270;28;20203;-66
2021/01/15 07:42:47;;;;;;;1.15;1.00;;;-1.40;98.00;;;;;;5071125;28;20251;-66
2021/01/15 07:45:50;;;;;;;1.10;1.00;;;-1.40;98.00;;;;;;5072956;28;20210;-65
2021/01/15 07:48:19;;;;;;;1.20;1.20;;;-1.40;98.00;;;;;;5070771;28;20210;-65
2021/01/15 07:50:47;;;;;;;1.40;1.30;;;-1.40;98.00;;;;;;5071756;28;20203;-65
2021/01/15 07:53:19;;;;;;;1.10;1.00;;;-1.50;98.00;;;;;;5070720;28;20680;-66
2021/01/15 07:55:47;;;;;;;1.25;1.20;;;-1.40;98.00;;;;;;5072909;28;20210;-66
2021/01/15 07:58:17;;;;;;;1.25;1.23;;;-1.40;98.00;;;;;;5071976;28;20203;-65
2021/01/15 08:00:45;;;;;;;1.52;1.20;;;-1.40;98.00;;;;;;5071894;28;20234;-66
2021/01/15 08:03:12;;;;;;;1.10;0.90;;;-1.50;98.00;;;;;;5071766;28;20245;-67
2021/01/15 08:05:40;;;;;;;1.10;1.00;;;-1.50;98.00;;;;;;5073170;28;20687;-65
2021/01/15 08:08:12;;;;;;;1.20;1.10;;;-1.50;98.00;;;;;;5070493;28;20245;-66
2021/01/15 08:10:48;;;;;;;1.10;1.00;;;-1.50;98.00;;;;;;5072618;28;20406;-65
2021/01/15 08:13:27;;;;;;;1.10;1.00;;;-1.50;98.00;;;;;;5070297;28;20203;-65
2021/01/15 08:15:55;;;;;;;2.45;2.15;;;-1.50;98.00;;;;;;5072548;28;20206;-66
2021/01/15 08:18:22;;;;;;;1.20;1.20;;;-1.50;98.00;;;;;;5070461;28;20199;-66
2021/01/15 08:20:51;;;;;;;1.20;1.10;;;-1.40;98.00;;;;;;5072384;28;20673;-66
2021/01/15 08:23:22;;;;;;;1.55;1.48;;;-1.30;98.00;;;;;;5070302;28;20204;-66
2021/01/15 08:25:50;;;;;;;1.15;1.10;;;-1.20;98.00;;;;;;5071038;28;20206;-67
2021/01/15 08:28:17;;;;;;;1.20;1.10;;;-1.20;98.00;;;;;;5070196;28;20220;-67
2021/01/15 08:31:01;;;;;;;1.20;1.00;;;-1.20;98.00;;;;;;5072108;28;20199;-66
2021/01/15 08:33:28;;;;;;;1.35;1.30;;;-1.10;98.00;;;;;;5070037;28;20260;-65
2021/01/15 08:35:58;;;;;;;1.25;1.17;;;-1.00;98.00;;;;;;5071311;28;20527;-65
2021/01/15 08:38:33;;;;;;;1.43;1.30;;;-0.90;98.00;;;;;;5069641;28;20732;-65
2021/01/15 08:41:01;;;;;;;6.25;2.17;;;-0.80;98.00;;;;;;5071723;28;20465;-65
2021/01/15 08:43:30;;;;;;;1.10;1.00;;;-0.80;98.00;;;;;;5069555;28;20237;-65
2021/01/15 08:46:00;;;;;;;3.50;1.60;;;-0.40;98.00;;;;;;5071666;28;20806;-64
2021/01/15 08:48:31;;;;;;;1.10;0.90;;;-0.10;98.00;;;;;;5069193;28;20280;-66
2021/01/15 08:51:08;;;;;;;1.33;1.23;;;-0.10;98.00;;;;;;5071200;28;20470;-65
2021/01/15 08:54:03;;;;;;;2.03;1.73;;;-0.30;98.00;;;;;;5069203;28;20516;-65
2021/01/15 08:56:46;;;;;;;1.13;1.00;;;-0.50;98.00;;;;;;5071274;28;20457;-65
2021/01/15 08:59:15;;;;;;;1.47;1.23;;;-0.60;98.00;;;;;;5069980;28;20855;-66
2021/01/15 09:01:42;;;;;;;1.17;1.00;;;-0.60;98.00;;;;;;5069121;28;20462;-65
2021/01/15 09:04:10;;;;;;;1.20;1.00;;;-0.70;98.00;;;;;;5071062;28;20501;-65
2021/01/15 09:06:39;;;;;;;2.20;1.00;;;-0.80;98.00;;;;;;5069055;28;20204;-65
2021/01/15 09:09:07;;;;;;;13.07;1.65;;;-0.80;98.00;;;;;;5070922;28;20235;-67
2021/01/15 09:11:35;;;;;;;1.30;1.23;;;-0.90;98.00;;;;;;5070273;28;20203;-66
2021/01/15 09:14:03;;;;;;;6.50;1.50;;;-1.10;98.00;;;;;;5070050;28;20310;-64
2021/01/15 09:16:31;;;;;;;1.45;1.20;;;-1.10;98.00;;;;;;5070776;28;20207;-65
2021/01/15 09:19:05;;;;;;;3.95;1.55;;;-1.10;98.00;;;;;;5068830;28;20200;-68
2021/01/15 09:21:31;;;;;;;1.10;1.00;;;-0.90;98.00;;;;;;5069134;28;20211;-67
2021/01/15 09:23:58;;;;;;;1.10;1.00;;;-1.00;98.00;;;;;;5068487;28;20198;-65
2021/01/15 09:26:25;;;;;;;1.10;1.10;;;-0.90;98.00;;;;;;5070543;28;20746;-66
2021/01/15 09:28:51;;;;;;;1.73;1.00;;;-0.90;98.00;;;;;;5068735;28;20226;-67
2021/01/15 09:31:18;;;;;;;1.20;1.10;;;-0.80;98.00;;;;;;5070357;28;20209;-66
2021/01/15 09:33:47;;;;;;;1.20;1.20;;;-0.90;98.00;;;;;;5069127;28;20341;-66
2021/01/15 09:36:25;;;;;;;4.03;2.53;;;-0.90;98.00;;;;;;5070461;28;20203;-65
2021/01/15 09:38:54;;;;;;;2.70;2.20;;;-0.80;98.00;;;;;;5069028;28;20202;-65
2021/01/15 09:41:22;;;;;;;1.20;1.13;;;-0.60;98.00;;;;;;5070161;28;20696;-65
2021/01/15 09:43:53;;;;;;;1.40;1.30;;;-0.40;98.00;;;;;;5068815;28;20296;-66
2021/01/15 09:46:24;;;;;;;1.30;1.13;;;-0.40;98.00;;;;;;5070499;28;20460;-66
2021/01/15 09:48:51;;;;;;;1.40;1.20;;;-0.50;98.00;;;;;;5068565;28;20228;-65
2021/01/15 09:51:21;;;;;;;1.20;1.10;;;-0.40;98.00;;;;;;5070015;28;20280;-66
2021/01/15 09:53:47;;;;;;;1.75;1.73;;;-0.40;98.00;;;;;;5068316;28;20252;-66
2021/01/15 09:56:22;;;;;;;1.10;0.90;;;-0.50;98.00;;;;;;5070508;28;20207;-67
2021/01/15 09:58:50;;;;;;;1.30;1.20;;;-0.50;98.00;;;;;;5067930;28;20257;-67
2021/01/15 10:01:17;;;;;;;1.83;1.65;;;-0.50;98.00;;;;;;5070013;28;20348;-66
2021/01/15 10:03:44;;;;;;;1.20;1.00;;;-0.50;98.00;;;;;;5068316;28;20217;-67
2021/01/15 10:06:14;;;;;;;1.20;1.00;;;-0.50;98.00;;;;;;5070145;28;20656;-67
2021/01/15 10:08:40;;;;;;;6.65;2.30;;;-0.40;98.00;;;;;;5068194;28;20233;-66
2021/01/15 10:11:07;;;;;;;1.73;1.58;;;-0.40;98.00;;;;;;5069751;28;20195;-66
2021/01/15 10:13:34;;;;;;;6.20;1.83;;;-0.30;98.00;;;;;;5068617;28;20222;-67
2021/01/15 10:16:05;;;;;;;1.20;1.10;;;-0.30;98.00;;;;;;5070113;28;20496;-67
2021/01/15 10:18:31;;;;;;;1.25;1.20;;;-0.30;98.00;;;;;;5068611;28;20199;-66
2021/01/15 10:20:58;;;;;;;1.15;1.00;;;-0.30;98.00;;;;;;5069809;28;20612;-66
2021/01/15 10:23:24;;;;;;;1.10;1.00;;;-0.30;98.00;;;;;;5068320;28;20569;-67
2021/01/15 10:25:51;;;;;;;1.73;1.30;;;0.00;98.00;;;;;;5069981;28;20205;-67
2021/01/15 10:28:17;;;;;;;2.10;1.30;;;0.00;98.00;;;;;;5068410;28;20496;-66
2021/01/15 10:30:52;;;;;;;1.20;1.10;;;-0.10;98.00;;;;;;5069840;28;20688;-66
2021/01/15 10:33:21;;;;;;;1.20;1.10;;;-0.10;98.00;;;;;;5067324;28;20215;-67
2021/01/15 10:35:47;;;;;;;1.63;1.30;;;0.00;98.00;;;;;;5070196;28;20223;-67
2021/01/15 10:38:14;;;;;;;1.40;1.20;;;0.00;98.00;;;;;;5068593;28;20204;-68
2021/01/15 10:40:40;;;;;;;1.20;1.00;;;0.10;98.00;;;;;;5069643;28;20211;-67
2021/01/15 10:43:07;;;;;;;1.10;1.02;;;0.10;98.00;;;;;;5067078;28;20460;-66
2021/01/15 10:45:33;;;;;;;1.17;1.00;;;0.10;98.00;;;;;;5069789;28;20209;-68
2021/01/15 10:48:02;;;;;;;2.23;1.80;;;0.20;98.00;;;;;;5068433;28;20835;-66
2021/01/15 10:50:29;;;;;;;1.20;1.10;;;0.20;98.00;;;;;;5069697;28;20576;-67
2021/01/15 10:52:56;;;;;;;1.60;1.20;;;0.20;98.00;;;;;;5067999;28;20235;-67
2021/01/15 10:55:26;;;;;;;1.27;1.17;;;0.40;98.00;;;;;;5069739;28;20863;-66
2021/01/15 10:57:52;;;;;;;1.23;1.17;;;0.50;98.00;;;;;;5068145;28;20215;-67
2021/01/15 11:00:20;;;;;;;1.10;1.00;;;0.50;98.00;;;;;;5069185;28;20473;-66
2021/01/15 11:02:50;;;;;;;1.73;1.63;;;0.60;98.00;;;;;;5066433;28;20470;-66
2021/01/15 11:05:17;;;;;;;1.20;1.10;;;0.70;98.00;;;;;;5069681;28;20573;-67
2021/01/15 11:07:46;;;;;;;1.53;1.50;;;0.90;98.00;;;;;;5067989;28;20462;-65
2021/01/15 11:10:14;;;;;;;1.42;1.35;;;1.10;98.00;;;;;;5071594;28;20638;-66
2021/01/15 11:12:41;;;;;;;1.10;1.00;;;1.20;98.00;;;;;;5071344;28;20670;-67
2021/01/15 11:15:08;;;;;;;1.20;1.03;;;1.30;98.00;;;;;;5073128;28;20451;-65
2021/01/15 11:17:37;;;;;;;7.63;2.80;;;1.40;98.00;;;;;;5071501;28;20529;-67
2021/01/15 11:20:06;;;;;;;1.67;1.47;;;1.40;98.00;;;;;;5071833;28;20449;-67
2021/01/15 11:22:34;;;;;;;1.47;1.20;;;1.40;98.00;;;;;;5071012;28;20462;-67
2021/01/15 11:25:01;;;;;;;1.63;1.20;;;1.50;98.00;;;;;;5073080;28;20463;-67
2021/01/15 11:27:27;;;;;;;4.07;1.40;;;1.70;98.00;;;;;;5071352;28;20459;-66
2021/01/15 11:29:55;;;;;;;1.37;1.33;;;1.80;98.00;;;;;;5072825;28;20487;-68
2021/01/15 11:32:22;;;;;;;1.13;1.00;;;1.90;98.00;;;;;;5071056;28;20456;-65
2021/01/15 11:34:48;;;;;;;1.20;1.20;;;2.10;98.00;;;;;;5072939;28;20513;-66
2021/01/15 11:37:18;;;;;;;1.20;1.17;;;2.30;98.00;;;;;;5069554;28;20475;-66
2021/01/15 11:39:46;;;;;;;1.70;1.60;;;2.40;98.00;;;;;;5072624;28;20459;-67
2021/01/15 11:42:13;;;;;;;1.20;1.10;;;2.30;98.00;;;;;;5070718;28;20464;-65
2021/01/15 11:44:40;;;;;;;1.73;1.47;;;2.30;98.00;;;;;;5072769;28;20463;-65
2021/01/15 11:47:06;;;;;;;1.40;1.20;;;2.60;98.00;;;;;;5070876;28;20489;-66
2021/01/15 11:49:33;;;;;;;1.20;1.00;;;2.60;98.00;;;;;;5072388;28;20499;-66
2021/01/15 11:52:00;;;;;;;1.20;1.10;;;2.70;98.00;;;;;;5070551;28;20463;-67
2021/01/15 11:54:26;;;;;;;1.20;1.00;;;2.70;98.00;;;;;;5072616;28;20529;-65
2021/01/15 11:56:55;;;;;;;2.13;1.30;;;2.70;98.00;;;;;;5071552;28;20455;-65
2021/01/15 11:59:21;;;;;;;1.20;0.90;;;2.80;98.00;;;;;;5072768;28;20566;-66
2021/01/15 12:01:48;;;;;;;2.80;1.33;;;2.90;98.00;;;;;;5072206;28;20467;-66
2021/01/15 12:04:15;;;;;;;1.20;1.20;;;3.10;98.00;;;;;;5070483;28;20559;-65
2021/01/15 12:06:41;;;;;;;1.20;1.10;;;3.30;98.00;;;;;;5072575;28;20449;-66
2021/01/15 12:09:08;;;;;;;1.20;1.10;;;3.40;97.30;;;;;;5070284;28;20484;-66
2021/01/15 12:11:37;;;;;;;1.20;1.20;;;3.50;97.00;;;;;;5071963;28;20525;-65
2021/01/15 12:14:04;;;;;;;1.20;1.17;;;3.50;97.10;;;;;;5070593;28;20452;-65
2021/01/15 12:16:30;;;;;;;1.37;1.33;;;3.60;96.50;;;;;;5072212;28;20460;-66
2021/01/15 12:18:57;;;;;;;2.03;1.63;;;3.70;97.20;;;;;;5070406;28;20467;-66
2021/01/15 12:21:24;;;;;;;2.70;1.63;;;3.60;96.70;;;;;;5071268;28;20468;-68
2021/01/15 12:23:50;;;;;;;1.73;1.33;;;3.60;97.10;;;;;;5070263;28;20472;-67
2021/01/15 12:26:17;;;;;;;1.20;1.00;;;3.50;96.00;;;;;;5071949;28;20510;-66
2021/01/15 12:28:44;;;;;;;1.77;1.27;;;3.40;96.70;;;;;;5070259;28;20457;-65
2021/01/15 12:31:11;;;;;;;1.20;1.00;;;3.30;97.30;;;;;;5071414;28;20487;-67
2021/01/15 12:33:39;;;;;;;1.20;1.00;;;3.10;97.30;;;;;;5069858;28;20828;-68
2021/01/15 12:36:10;;;;;;;1.30;1.10;;;3.10;97.30;;;;;;5071659;28;20463;-67
2021/01/15 12:38:37;;;;;;;1.27;1.23;;;3.00;97.40;;;;;;5069977;28;20456;-66
2021/01/15 12:41:04;;;;;;;1.20;1.00;;;3.10;97.40;;;;;;5071207;28;20461;-65
2021/01/15 12:43:30;;;;;;;1.20;0.90;;;3.00;97.80;;;;;;5070113;28;20467;-66
2021/01/15 12:45:57;;;;;;;1.10;1.00;;;3.10;97.50;;;;;;5071495;28;20939;-66
2021/01/15 12:48:24;;;;;;;1.20;1.20;;;3.40;97.50;;;;;;5069715;28;20460;-67
2021/01/15 12:50:51;;;;;;;1.77;1.37;;;3.60;96.40;;;;;;5071110;28;20484;-65
2021/01/15 12:53:17;;;;;;;1.50;1.30;;;3.70;96.30;;;;;;5069799;28;20461;-64
2021/01/15 12:55:44;;;;;;;1.83;1.30;;;3.80;96.40;;;;;;5071514;28;20972;-65
2021/01/15 12:58:17;;;;;;;1.20;1.10;;;3.90;95.50;;;;;;5069704;28;20479;-65
2021/01/15 13:00:44;;;;;;;1.20;1.07;;;3.80;95.30;;;;;;5069460;28;20768;-67
2021/01/15 13:03:11;;;;;;;1.33;1.20;;;3.90;94.70;;;;;;5069603;28;21014;-65
2021/01/15 13:05:38;;;;;;;1.20;1.20;;;3.80;95.20;;;;;;5069864;28;20500;-65